createdAt,value
2019-04-14T00:00:05.368Z,14.27
2019-04-14T00:02:46.895Z,16.07
2019-04-14T00:05:16.897Z,15.00
2019-04-14T00:07:44.974Z,15.43
2019-04-14T00:10:13.892Z,16.07
2019-04-14T00:12:42.700Z,15.23
2019-04-14T00:15:21.118Z,16.37
2019-04-14T00:17:41.383Z,14.67
2019-04-14T00:20:09.554Z,16.83
2019-04-14T00:22:38.100Z,17.97
2019-04-14T00:25:06.471Z,16.20
2019-04-14T00:27:34.535Z,16.47
2019-04-14T00:30:03.361Z,16.83
2019-04-14T00:32:33.425Z,16.03
2019-04-14T00:35:12.518Z,17.10
2019-04-14T00:37:46.640Z,16.70
2019-04-14T00:40:19.912Z,18.57
2019-04-14T00:43:02.703Z,17.50
2019-04-14T00:45:42.597Z,17.30
2019-04-14T00:48:13.124Z,16.87
2019-04-14T00:50:38.783Z,17.03
2019-04-14T00:53:07.657Z,16.77
2019-04-14T00:55:35.749Z,17.73
2019-04-14T00:58:03.844Z,16.40
2019-04-14T01:00:32.003Z,18.60
2019-04-14T01:03:00.399Z,17.70
2019-04-14T01:05:28.671Z,17.33
2019-04-14T01:07:58.686Z,15.77
2019-04-14T01:10:27.814Z,16.83
2019-04-14T01:12:56.029Z,16.77
2019-04-14T01:15:24.649Z,16.80
2019-04-14T01:17:52.889Z,16.70
2019-04-14T01:20:21.092Z,17.90
2019-04-14T01:22:48.966Z,17.57
2019-04-14T01:25:17.129Z,17.77
2019-04-14T01:27:45.108Z,16.20
2019-04-14T01:30:13.355Z,16.27
2019-04-14T01:32:41.543Z,16.67
2019-04-14T01:35:09.633Z,15.40
2019-04-14T01:37:37.615Z,16.37
2019-04-14T01:40:05.360Z,14.67
2019-04-14T01:42:33.398Z,15.80
2019-04-14T01:45:01.429Z,15.27
2019-04-14T01:47:29.219Z,16.47
2019-04-14T01:49:57.350Z,15.87
2019-04-14T01:52:44.173Z,15.80
2019-04-14T01:55:24.475Z,16.57
2019-04-14T01:58:07.877Z,15.83
2019-04-14T02:00:55.586Z,15.00
2019-04-14T02:03:23.875Z,16.10
2019-04-14T02:05:51.814Z,17.13
2019-04-14T02:08:19.849Z,16.20
2019-04-14T02:10:47.939Z,15.97
2019-04-14T02:13:15.770Z,16.77
2019-04-14T02:15:44.272Z,17.00
2019-04-14T02:18:12.180Z,15.63
2019-04-14T02:20:40.359Z,16.20
2019-04-14T02:23:08.335Z,15.17
2019-04-14T02:25:36.298Z,15.97
2019-04-14T02:28:04.780Z,15.43
2019-04-14T02:30:38.907Z,16.23
2019-04-14T02:33:31.914Z,15.60
2019-04-14T02:43:31.041Z,14.90
2019-04-14T02:48:36.217Z,12.93
2019-04-14T02:50:56.109Z,10.40
2019-04-14T02:53:30.708Z,10.60
2019-04-14T02:56:00.772Z,11.10
2019-04-14T02:58:29.092Z,11.00
2019-04-14T03:01:03.980Z,10.70
2019-04-14T03:03:24.187Z,9.67
2019-04-14T03:05:51.300Z,9.37
2019-04-14T03:10:51.858Z,6.40
2019-04-14T03:15:48.264Z,8.97
2019-04-14T03:18:32.168Z,8.90
2019-04-14T03:21:09.242Z,7.67
2019-04-14T03:23:46.378Z,7.10
2019-04-14T03:26:11.795Z,7.07
2019-04-14T03:28:46.045Z,7.63
2019-04-14T03:31:52.464Z,6.47
2019-04-14T03:36:44.671Z,5.50
2019-04-14T03:38:50.253Z,6.53
2019-04-14T03:41:17.233Z,7.73
2019-04-14T03:43:36.802Z,6.90
2019-04-14T03:48:52.325Z,7.57
2019-04-14T03:51:17.419Z,7.27
2019-04-14T03:53:34.692Z,8.20
2019-04-14T03:55:49.133Z,8.40
2019-04-14T03:58:13.512Z,7.83
2019-04-14T04:00:42.158Z,7.93
2019-04-14T04:03:10.641Z,8.17
2019-04-14T04:05:39.131Z,8.33
2019-04-14T04:08:07.181Z,9.00
2019-04-14T04:10:37.837Z,8.30
2019-04-14T04:13:06.270Z,8.07
2019-04-14T04:15:34.308Z,8.03
2019-04-14T04:18:09.157Z,8.27
2019-04-14T04:20:56.660Z,7.63
2019-04-14T04:23:35.642Z,6.90
2019-04-14T04:26:09.025Z,7.67
2019-04-14T04:28:56.707Z,6.93
2019-04-14T04:31:28.732Z,7.53
2019-04-14T04:34:03.307Z,6.60
2019-04-14T04:36:37.747Z,7.97
2019-04-14T04:39:12.873Z,7.47
2019-04-14T04:41:40.759Z,7.83
2019-04-14T04:44:09.409Z,8.50
2019-04-14T04:46:37.363Z,6.83
2019-04-14T04:49:13.943Z,8.53
2019-04-14T04:51:35.619Z,8.10
2019-04-14T04:54:03.852Z,7.87
2019-04-14T04:56:31.885Z,7.60
2019-04-14T04:58:59.603Z,8.07
2019-04-14T05:01:27.441Z,7.00
2019-04-14T05:03:55.710Z,8.27
2019-04-14T05:06:24.746Z,7.03
2019-04-14T05:08:54.473Z,6.20
2019-04-14T05:11:29.431Z,6.27
2019-04-14T05:13:58.615Z,7.07
2019-04-14T05:16:26.255Z,7.20
2019-04-14T05:18:55.126Z,6.90
2019-04-14T05:21:23.522Z,7.00
2019-04-14T05:23:51.684Z,7.00
2019-04-14T05:26:19.895Z,6.13
2019-04-14T05:28:48.454Z,6.23
2019-04-14T05:31:16.451Z,7.33
2019-04-14T05:33:44.746Z,6.10
2019-04-14T05:36:12.837Z,6.67
2019-04-14T05:38:40.876Z,6.67
2019-04-14T05:41:09.115Z,6.67
2019-04-14T05:43:45.418Z,7.27
2019-04-14T05:46:07.637Z,6.13
2019-04-14T05:48:35.796Z,6.50
2019-04-14T05:51:04.182Z,6.73
2019-04-14T05:53:32.656Z,6.97
2019-04-14T05:56:01.464Z,6.47
2019-04-14T05:58:29.698Z,6.50
2019-04-14T06:00:57.984Z,6.90
2019-04-14T06:03:25.790Z,6.30
2019-04-14T06:05:53.675Z,6.30
2019-04-14T06:08:21.341Z,6.50
2019-04-14T06:10:49.072Z,6.33
2019-04-14T06:13:16.715Z,6.47
2019-04-14T06:15:44.360Z,6.10
2019-04-14T06:18:12.009Z,6.57
2019-04-14T06:20:39.663Z,6.43
2019-04-14T06:23:07.313Z,5.67
2019-04-14T06:25:36.379Z,6.17
2019-04-14T06:28:04.323Z,6.87
2019-04-14T06:30:43.048Z,6.37
2019-04-14T06:33:17.782Z,6.73
2019-04-14T06:35:55.118Z,6.80
2019-04-14T06:38:25.938Z,6.20
2019-04-14T06:40:58.823Z,6.07
2019-04-14T06:43:26.462Z,4.90
2019-04-14T06:45:54.100Z,6.00
2019-04-14T06:48:21.753Z,4.93
2019-04-14T06:50:49.399Z,5.80
2019-04-14T06:53:17.055Z,5.27
2019-04-14T06:55:44.778Z,5.27
2019-04-14T06:58:12.422Z,5.07
2019-04-14T07:00:40.137Z,6.10
2019-04-14T07:03:07.776Z,5.60
2019-04-14T07:05:35.406Z,5.90
2019-04-14T07:08:03.057Z,5.50
2019-04-14T07:10:30.700Z,6.03
2019-04-14T07:12:58.620Z,6.40
2019-04-14T07:15:26.339Z,5.80
2019-04-14T07:17:55.783Z,6.43
2019-04-14T07:20:23.573Z,5.57
2019-04-14T07:22:51.326Z,6.77
2019-04-14T07:25:18.969Z,6.30
2019-04-14T07:27:46.614Z,5.97
2019-04-14T07:30:38.314Z,6.50
2019-04-14T07:33:14.854Z,6.50
2019-04-14T07:35:55.115Z,6.87
2019-04-14T07:38:27.703Z,7.03
2019-04-14T07:41:04.092Z,7.30
2019-04-14T07:43:41.558Z,7.73
2019-04-14T07:46:13.742Z,8.10
2019-04-14T07:48:47.296Z,7.83
2019-04-14T07:51:20.155Z,8.70
2019-04-14T07:53:55.971Z,8.70
2019-04-14T07:56:43.702Z,8.83
2019-04-14T07:59:19.470Z,9.63
2019-04-14T08:01:53.270Z,8.00
2019-04-14T08:04:25.320Z,8.47
2019-04-14T08:06:55.450Z,8.60
2019-04-14T08:09:23.087Z,8.30
2019-04-14T08:11:50.748Z,8.40
2019-04-14T08:14:18.396Z,8.27
2019-04-14T08:16:46.072Z,9.73
2019-04-14T08:19:13.725Z,9.17
2019-04-14T08:21:41.655Z,9.30
2019-04-14T08:24:09.331Z,8.77
2019-04-14T08:26:37.015Z,9.33
2019-04-14T08:29:04.689Z,9.23
2019-04-14T08:31:32.451Z,9.77
2019-04-14T08:34:00.115Z,9.67
2019-04-14T08:36:27.781Z,9.27
2019-04-14T08:38:55.428Z,11.33
2019-04-14T08:41:23.109Z,10.30
2019-04-14T08:43:58.751Z,9.43
2019-04-14T08:46:36.760Z,11.13
2019-04-14T08:49:12.874Z,10.63
2019-04-14T08:51:50.033Z,10.10
2019-04-14T08:54:26.298Z,9.47
2019-04-14T08:57:04.107Z,11.13
2019-04-14T08:59:44.711Z,10.63
2019-04-14T09:02:31.407Z,10.97
2019-04-14T09:05:18.912Z,10.83
2019-04-14T09:07:50.147Z,11.23
2019-04-14T09:10:23.651Z,11.13
2019-04-14T09:12:52.947Z,11.73
2019-04-14T09:15:20.596Z,11.87
2019-04-14T09:17:48.263Z,11.40
2019-04-14T09:20:15.929Z,13.23
2019-04-14T09:22:43.583Z,12.77
2019-04-14T09:25:11.243Z,11.47
2019-04-14T09:27:38.903Z,11.90
2019-04-14T09:30:06.580Z,11.33
2019-04-14T09:32:34.314Z,12.60
2019-04-14T09:35:01.970Z,13.00
2019-04-14T09:37:29.611Z,12.93
2019-04-14T09:39:57.264Z,12.70
2019-04-14T09:42:24.935Z,13.83
2019-04-14T09:44:52.669Z,13.63
2019-04-14T09:47:20.311Z,13.23
2019-04-14T09:49:47.964Z,13.90
2019-04-14T09:52:15.625Z,12.40
2019-04-14T09:54:43.301Z,13.17
2019-04-14T09:57:10.947Z,14.07
2019-04-14T09:59:38.595Z,14.53
2019-04-14T10:02:06.239Z,14.70
2019-04-14T10:04:33.987Z,15.50
2019-04-14T10:07:01.710Z,14.30
2019-04-14T10:09:29.598Z,15.73
2019-04-14T10:11:57.324Z,13.87
2019-04-14T10:14:25.048Z,15.73
2019-04-14T10:16:52.700Z,14.60
2019-04-14T10:19:20.358Z,15.57
2019-04-14T10:21:48.027Z,15.47
2019-04-14T10:24:15.673Z,16.07
2019-04-14T10:26:43.319Z,15.67
2019-04-14T10:29:10.984Z,14.07
2019-04-14T10:31:38.627Z,15.53
2019-04-14T10:34:06.282Z,15.80
2019-04-14T10:36:33.931Z,15.63
2019-04-14T10:39:01.589Z,15.90
2019-04-14T10:41:29.243Z,15.17
2019-04-14T10:43:56.898Z,16.23
2019-04-14T10:46:24.561Z,16.90
2019-04-14T10:48:52.226Z,15.73
2019-04-14T10:51:29.345Z,16.07
2019-04-14T10:53:49.262Z,17.77
2019-04-14T10:56:16.952Z,17.40
2019-04-14T10:58:44.607Z,17.27
2019-04-14T11:01:12.260Z,17.70
2019-04-14T11:03:39.931Z,18.27
2019-04-14T11:06:14.344Z,18.57
2019-04-14T11:08:41.995Z,18.87
2019-04-14T11:11:09.643Z,18.93
2019-04-14T11:13:37.303Z,18.83
2019-04-14T11:16:05.079Z,19.53
2019-04-14T11:18:32.742Z,18.50
2019-04-14T11:21:00.470Z,18.57
2019-04-14T11:23:28.175Z,19.57
2019-04-14T11:25:55.837Z,19.70
2019-04-14T11:28:23.562Z,20.97
2019-04-14T11:30:51.407Z,21.47
2019-04-14T11:33:24.242Z,20.53
2019-04-14T11:35:57.728Z,20.80
2019-04-14T11:38:32.418Z,21.10
2019-04-14T11:41:02.079Z,21.20
2019-04-14T11:43:29.780Z,21.60
2019-04-14T11:45:57.609Z,21.77
2019-04-14T11:48:25.347Z,22.27
2019-04-14T11:50:53.008Z,22.67
2019-04-14T11:53:20.709Z,23.77
2019-04-14T11:55:48.384Z,24.07
2019-04-14T11:58:16.051Z,22.53
2019-04-14T12:00:48.880Z,21.40
2019-04-14T12:03:28.608Z,22.73
2019-04-14T12:06:01.509Z,20.17
2019-04-14T12:08:37.035Z,19.73
2019-04-14T12:11:04.708Z,20.20
2019-04-14T12:13:32.383Z,21.07
2019-04-14T12:16:00.049Z,20.87
2019-04-14T12:18:27.695Z,21.77
2019-04-14T12:20:55.360Z,21.43
2019-04-14T12:23:23.011Z,22.60
2019-04-14T12:25:50.680Z,20.97
2019-04-14T12:28:19.379Z,20.97
2019-04-14T12:30:47.175Z,22.00
2019-04-14T12:33:14.838Z,22.80
2019-04-14T12:35:42.499Z,24.40
2019-04-14T12:38:10.438Z,23.87
2019-04-14T12:40:38.816Z,29.67
2019-04-14T12:43:21.836Z,29.53
2019-04-14T12:46:06.345Z,26.43
2019-04-14T12:48:43.792Z,24.83
2019-04-14T12:51:20.548Z,26.60
2019-04-14T12:53:48.096Z,24.20
2019-04-14T12:56:18.435Z,24.07
2019-04-14T12:58:56.712Z,24.03
2019-04-14T13:01:25.143Z,26.20
2019-04-14T13:03:52.797Z,26.17
2019-04-14T13:06:20.451Z,24.50
2019-04-14T13:08:48.103Z,25.73
2019-04-14T13:11:15.768Z,24.43
2019-04-14T13:13:43.444Z,25.00
2019-04-14T13:16:11.131Z,26.03
2019-04-14T13:18:38.779Z,27.53
2019-04-14T13:21:06.433Z,26.00
2019-04-14T13:23:34.127Z,26.03
2019-04-14T13:26:01.861Z,25.83
2019-04-14T13:28:29.519Z,24.30
2019-04-14T13:30:57.174Z,26.37
2019-04-14T13:33:24.870Z,26.33
2019-04-14T13:35:52.607Z,26.77
2019-04-14T13:38:20.415Z,26.30
2019-04-14T13:40:48.066Z,26.13
2019-04-14T13:43:15.736Z,25.87
2019-04-14T13:45:43.396Z,26.40
2019-04-14T13:48:11.048Z,27.27
2019-04-14T13:50:38.699Z,28.60
2019-04-14T13:53:06.363Z,28.03
2019-04-14T13:55:34.419Z,26.23
2019-04-14T13:58:02.079Z,26.07
2019-04-14T14:00:29.732Z,28.27
2019-04-14T14:02:57.395Z,28.60
2019-04-14T14:05:25.057Z,27.70
2019-04-14T14:07:52.718Z,28.00
2019-04-14T14:10:20.370Z,28.07
2019-04-14T14:12:57.703Z,28.63
2019-04-14T14:15:40.206Z,30.20
2019-04-14T14:18:21.501Z,26.77
2019-04-14T14:20:58.369Z,29.67
2019-04-14T14:23:32.138Z,28.83
2019-04-14T14:26:03.047Z,29.60
2019-04-14T14:28:30.711Z,29.87
2019-04-14T14:30:58.377Z,38.13
2019-04-14T14:33:26.633Z,32.77
2019-04-14T14:35:54.347Z,33.37
2019-04-14T14:38:22.067Z,31.93
2019-04-14T14:40:49.743Z,31.17
2019-04-14T14:43:17.451Z,30.03
2019-04-14T14:45:56.498Z,29.93
2019-04-14T14:48:28.339Z,30.50
2019-04-14T14:51:02.799Z,31.50
2019-04-14T14:53:30.520Z,30.77
2019-04-14T14:55:58.210Z,32.00
2019-04-14T14:58:25.924Z,32.50
2019-04-14T15:00:53.579Z,31.57
2019-04-14T15:03:21.249Z,30.23
2019-04-14T15:05:48.903Z,29.47
2019-04-14T15:08:16.563Z,31.00
2019-04-14T15:10:44.322Z,32.70
2019-04-14T15:13:12.044Z,30.47
2019-04-14T15:15:39.726Z,31.90
2019-04-14T15:18:07.393Z,29.63
2019-04-14T15:20:35.048Z,29.53
2019-04-14T15:23:02.722Z,28.47
2019-04-14T15:25:30.379Z,30.50
2019-04-14T15:27:58.383Z,28.30
2019-04-14T15:30:26.098Z,27.27
2019-04-14T15:32:53.768Z,28.50
2019-04-14T15:35:21.431Z,28.47
2019-04-14T15:37:49.092Z,29.00
2019-04-14T15:40:16.756Z,29.07
2019-04-14T15:42:44.416Z,28.77
2019-04-14T15:45:13.992Z,29.20
2019-04-14T15:47:41.476Z,28.27
2019-04-14T15:50:09.136Z,27.30
2019-04-14T15:52:37.179Z,27.93
2019-04-14T15:55:04.859Z,28.67
2019-04-14T15:57:51.640Z,30.77
2019-04-14T16:00:41.208Z,30.27
2019-04-14T16:03:14.027Z,34.73
2019-04-14T16:05:50.311Z,28.77
2019-04-14T16:08:25.163Z,26.20
2019-04-14T16:10:57.029Z,28.53
2019-04-14T16:13:31.959Z,28.90
2019-04-14T16:16:09.759Z,29.67
2019-04-14T16:18:45.097Z,31.30
2019-04-14T16:21:12.769Z,29.77
2019-04-14T16:23:50.027Z,29.70
2019-04-14T16:26:29.779Z,30.83
2019-04-14T16:29:02.735Z,30.27
2019-04-14T16:31:44.680Z,29.23
2019-04-14T16:34:16.644Z,29.60
2019-04-14T16:36:45.129Z,29.40
2019-04-14T16:39:12.895Z,28.93
2019-04-14T16:41:40.551Z,29.40
2019-04-14T16:44:08.221Z,30.20
2019-04-14T16:46:35.965Z,31.20
2019-04-14T16:49:04.016Z,30.07
2019-04-14T16:51:37.109Z,30.67
2019-04-14T16:54:13.160Z,30.70
2019-04-14T16:56:54.224Z,30.23
2019-04-14T16:59:21.871Z,29.13
2019-04-14T17:01:50.323Z,29.50
2019-04-14T17:04:18.006Z,30.67
2019-04-14T17:06:45.680Z,30.27
2019-04-14T17:09:13.335Z,31.07
2019-04-14T17:11:41.000Z,30.50
2019-04-14T17:14:14.341Z,29.47
2019-04-14T17:16:54.073Z,27.77
2019-04-14T17:19:26.895Z,29.20
2019-04-14T17:22:04.745Z,29.00
2019-04-14T17:24:37.580Z,29.90
2019-04-14T17:27:24.289Z,28.27
2019-04-14T17:30:00.963Z,29.73
2019-04-14T17:32:35.485Z,26.60
2019-04-14T17:35:12.065Z,27.17
2019-04-14T17:38:00.768Z,27.57
2019-04-14T17:40:39.519Z,26.30
2019-04-14T17:43:11.390Z,28.37
2019-04-14T17:45:43.989Z,27.10
2019-04-14T17:48:21.065Z,28.40
2019-04-14T17:50:58.119Z,28.87
2019-04-14T17:53:44.815Z,28.60
2019-04-14T17:56:19.072Z,27.63
2019-04-14T17:58:52.088Z,29.20
2019-04-14T18:01:26.256Z,29.23
2019-04-14T18:03:58.972Z,28.93
2019-04-14T18:06:47.583Z,28.63
2019-04-14T18:09:37.123Z,28.33
2019-04-14T18:12:09.984Z,29.83
2019-04-14T18:14:42.443Z,29.80
2019-04-14T18:17:20.342Z,28.73
2019-04-14T18:19:53.027Z,30.67
2019-04-14T18:22:20.692Z,29.07
2019-04-14T18:24:48.347Z,29.40
2019-04-14T18:27:16.018Z,29.07
2019-04-14T18:29:55.934Z,29.23
2019-04-14T18:32:34.971Z,29.00
2019-04-14T18:35:07.479Z,29.67
2019-04-14T18:37:43.418Z,29.20
2019-04-14T18:40:22.861Z,29.83
2019-04-14T18:43:07.179Z,30.83
2019-04-14T18:45:38.463Z,32.37
2019-04-14T18:48:25.956Z,30.40
2019-04-14T18:51:08.290Z,32.53
2019-04-14T18:53:45.994Z,30.83
2019-04-14T18:56:24.204Z,31.10
2019-04-14T18:59:02.823Z,31.57
2019-04-14T19:01:33.879Z,29.73
2019-04-14T19:04:02.398Z,30.50
2019-04-14T19:06:30.228Z,30.50
2019-04-14T19:08:57.880Z,31.07
2019-04-14T19:11:45.496Z,31.33
2019-04-14T19:14:17.288Z,29.30
2019-04-14T19:16:48.507Z,29.80
2019-04-14T19:19:17.408Z,30.40
2019-04-14T19:21:45.060Z,30.90
2019-04-14T19:24:12.722Z,30.37
2019-04-14T19:26:40.368Z,30.23
2019-04-14T19:29:08.025Z,31.63
2019-04-14T19:31:35.675Z,31.13
2019-04-14T19:34:03.333Z,30.83
2019-04-14T19:36:31.015Z,31.67
2019-04-14T19:38:58.672Z,29.63
2019-04-14T19:41:26.337Z,31.30
2019-04-14T19:43:54.064Z,29.73
2019-04-14T19:46:21.727Z,29.43
2019-04-14T19:48:49.464Z,29.77
2019-04-14T19:51:17.112Z,31.13
2019-04-14T19:53:44.766Z,28.87
2019-04-14T19:56:12.416Z,30.90
2019-04-14T19:58:40.067Z,28.40
2019-04-14T20:01:07.737Z,30.83
2019-04-14T20:03:35.401Z,30.20
2019-04-14T20:06:03.048Z,30.67
2019-04-14T20:08:30.708Z,29.27
2019-04-14T20:10:58.393Z,29.77
2019-04-14T20:13:27.787Z,29.40
2019-04-14T20:16:04.456Z,29.27
2019-04-14T20:18:40.619Z,28.93
2019-04-14T20:21:30.928Z,28.73
2019-04-14T20:24:03.781Z,29.97
2019-04-14T20:26:36.806Z,28.93
2019-04-14T20:29:11.139Z,29.67
2019-04-14T20:31:45.143Z,29.90
2019-04-14T20:34:12.807Z,29.27
2019-04-14T20:36:40.464Z,28.47
2019-04-14T20:39:09.735Z,29.40
2019-04-14T20:41:37.399Z,27.23
2019-04-14T20:44:05.065Z,28.20
2019-04-14T21:01:10.775Z,28.20
2019-04-14T21:03:43.578Z,27.13
2019-04-14T21:06:17.199Z,28.20
2019-04-14T21:08:56.743Z,27.93
2019-04-14T21:11:27.823Z,26.53
2019-04-14T21:14:02.787Z,27.47
2019-04-14T21:16:35.492Z,26.80
2019-04-14T21:19:10.780Z,27.53
2019-04-14T21:21:43.601Z,28.87
2019-04-14T21:24:16.603Z,30.50
2019-04-14T21:26:51.350Z,30.93
2019-04-14T21:29:41.134Z,30.87
2019-04-14T21:32:15.783Z,31.07
2019-04-14T21:34:51.235Z,33.13
2019-04-14T21:37:26.364Z,32.70
2019-04-14T21:40:01.603Z,33.03
2019-04-14T21:42:29.267Z,33.60
2019-04-14T21:44:56.919Z,33.57
2019-04-14T21:47:24.574Z,33.47
2019-04-14T21:49:52.357Z,34.67
2019-04-14T21:52:29.714Z,32.17
2019-04-14T21:54:57.371Z,32.03
2019-04-14T21:57:47.133Z,33.87
2019-04-14T22:00:38.875Z,33.53
2019-04-14T22:03:11.945Z,32.33
2019-04-14T22:05:46.183Z,31.10
2019-04-14T22:08:17.891Z,30.07
2019-04-14T22:10:49.446Z,29.00
2019-04-14T22:13:17.296Z,28.20
2019-04-14T22:15:45.008Z,29.17
2019-04-14T22:18:12.671Z,29.77
2019-04-14T22:20:40.321Z,28.67
2019-04-14T22:23:11.860Z,27.90
2019-04-14T22:25:39.512Z,27.17
2019-04-14T22:28:07.171Z,27.97
2019-04-14T22:30:34.857Z,27.03
2019-04-14T22:33:02.507Z,25.77
2019-04-14T22:35:30.165Z,26.63
2019-04-14T22:37:57.813Z,27.37
2019-04-14T22:40:25.463Z,27.07
2019-04-14T22:42:53.128Z,24.67
2019-04-14T22:45:20.767Z,26.30
2019-04-14T22:47:48.427Z,25.77
2019-04-14T22:50:16.072Z,25.87
2019-04-14T22:52:43.753Z,26.83
2019-04-14T22:55:11.419Z,26.47
2019-04-14T22:57:39.079Z,28.40
2019-04-14T23:00:07.139Z,27.67
2019-04-14T23:02:45.117Z,27.47
2019-04-14T23:05:26.835Z,26.80
2019-04-14T23:08:01.991Z,27.53
2019-04-14T23:10:38.971Z,25.33
2019-04-14T23:13:11.558Z,27.17
2019-04-14T23:15:50.100Z,26.27
2019-04-14T23:18:27.493Z,25.60
2019-04-14T23:21:14.187Z,25.93
2019-04-14T23:23:48.815Z,26.83
2019-04-14T23:26:16.509Z,25.63
2019-04-14T23:28:44.159Z,26.07
2019-04-14T23:31:11.885Z,25.47
2019-04-14T23:33:39.539Z,24.97
2019-04-14T23:36:07.192Z,26.23
2019-04-14T23:38:34.853Z,26.00
2019-04-14T23:41:02.531Z,27.33
2019-04-14T23:43:30.179Z,27.37
2019-04-14T23:45:57.827Z,28.20
2019-04-14T23:48:25.483Z,28.00
2019-04-14T23:50:53.131Z,27.67
2019-04-14T23:53:20.783Z,28.30
2019-04-14T23:55:50.176Z,27.20
2019-04-14T23:58:17.830Z,25.43
